Time;durP1;ratioP1;P1;durP2;ratioP2;P2;SDS_P1;SDS_P2;PMS_P1;PMS_P2;Temp;Humidity;BMP_temperature;BMP_pressure;BME280_temperature;BME280_humidity;BME280_pressure;Samples;Min_cycle;Max_cycle;Signal;HPM_P1;HPM_P2
2022/07/20 00:00:49;;;;;;;4.50;3.15;;;24.70;66.30;;;;;;4998349;28;20266;-67
2022/07/20 00:03:15;;;;;;;5.40;2.58;;;24.70;66.80;;;;;;4994570;28;20014;-67
2022/07/20 00:05:42;;;;;;;4.00;3.00;;;24.70;67.30;;;;;;5005961;28;20438;-67
2022/07/20 00:08:09;;;;;;;5.90;2.97;;;25.80;69.10;;;;;;4989782;28;20073;-68
2022/07/20 00:13:20;;;;;;;4.28;3.28;;;24.40;68.40;;;;;;4999760;28;20080;-67
2022/07/20 00:15:46;;;;;;;2.80;2.60;;;26.40;69.60;;;;;;4976588;28;20038;-67
2022/07/20 00:18:12;;;;;;;7.88;3.38;;;25.20;68.70;;;;;;4989673;28;20541;-67
2022/07/20 00:20:38;;;;;;;3.60;3.20;;;24.20;68.30;;;;;;4990714;28;20431;-67
2022/07/20 00:23:04;;;;;;;5.00;3.17;;;24.10;68.30;;;;;;4990352;28;20419;-67
2022/07/20 00:25:30;;;;;;;5.13;3.30;;;24.30;68.30;;;;;;4992984;28;20043;-67
2022/07/20 00:27:56;;;;;;;5.32;3.15;;;24.20;68.30;;;;;;4993732;28;20030;-67
2022/07/20 00:30:22;;;;;;;3.83;3.40;;;24.20;68.00;;;;;;4996065;28;20037;-67
2022/07/20 00:32:48;;;;;;;5.13;3.63;;;24.30;68.00;;;;;;4990264;28;20025;-67
2022/07/20 00:35:15;;;;;;;5.88;4.13;;;24.40;67.80;;;;;;5000982;28;20034;-67
2022/07/20 00:37:41;;;;;;;4.28;3.15;;;24.30;68.10;;;;;;5007160;28;20065;-67
2022/07/20 00:40:09;;;;;;;5.07;3.50;;;24.20;68.10;;;;;;4990723;28;20054;-67
2022/07/20 00:42:35;;;;;;;3.75;2.90;;;24.30;68.20;;;;;;4991081;28;20109;-67
2022/07/20 00:45:02;;;;;;;5.80;3.10;;;24.20;68.40;;;;;;5002973;28;20247;-69
2022/07/20 00:47:28;;;;;;;5.57;3.28;;;24.10;68.20;;;;;;4985352;28;20072;-69
2022/07/20 00:49:53;;;;;;;4.65;3.58;;;25.50;68.70;;;;;;4997534;28;20374;-68
2022/07/20 00:52:19;;;;;;;6.28;3.35;;;23.90;67.60;;;;;;5013615;28;20022;-69
2022/07/20 00:54:45;;;;;;;4.97;3.22;;;24.10;67.70;;;;;;5000042;28;20030;-69
2022/07/20 00:57:11;;;;;;;4.95;3.05;;;25.50;68.60;;;;;;5004201;28;20033;-69
2022/07/20 00:59:37;;;;;;;3.70;3.10;;;24.10;68.00;;;;;;5007813;28;20034;-69
2022/07/20 01:02:03;;;;;;;8.00;3.67;;;;;;;;;;4994007;28;20030;-69
2022/07/20 01:04:28;;;;;;;5.10;3.22;;;24.00;65.40;;;;;;5007219;28;20558;-69
2022/07/20 01:06:54;;;;;;;4.75;3.15;;;23.90;68.00;;;;;;4999910;28;20482;-69
2022/07/20 01:09:20;;;;;;;5.07;3.28;;;23.90;68.10;;;;;;5001984;28;20105;-69
2022/07/20 01:11:46;;;;;;;4.32;2.70;;;23.80;68.20;;;;;;5010531;28;20024;-69
2022/07/20 01:14:12;;;;;;;7.47;3.85;;;24.00;68.50;;;;;;4983415;28;20470;-69
2022/07/20 01:16:38;;;;;;;4.40;3.63;;;23.90;68.20;;;;;;5008755;28;20080;-69
2022/07/20 01:19:06;;;;;;;4.25;3.45;;;23.90;68.10;;;;;;5003565;28;20023;-69
2022/07/20 01:21:32;;;;;;;4.97;3.67;;;23.80;68.20;;;;;;4997868;28;20038;-69
2022/07/20 01:23:58;;;;;;;5.25;3.30;;;23.80;68.20;;;;;;5003155;28;20073;-69
2022/07/20 01:26:24;;;;;;;5.50;3.70;;;23.80;68.30;;;;;;4995635;28;20066;-69
2022/07/20 01:28:50;;;;;;;4.57;3.15;;;24.30;68.90;;;;;;5013691;28;20034;-69
2022/07/20 01:31:15;;;;;;;3.90;2.92;;;24.50;68.90;;;;;;4988920;28;20026;-69
2022/07/20 01:33:41;;;;;;;6.35;4.30;;;23.60;68.70;;;;;;5008255;28;20026;-69
2022/07/20 01:36:07;;;;;;;5.65;3.38;;;23.60;68.80;;;;;;5013216;28;20470;-69
2022/07/20 01:38:32;;;;;;;8.85;3.88;;;23.70;68.30;;;;;;5012756;28;20033;-69
2022/07/20 01:40:58;;;;;;;4.10;3.08;;;23.70;68.60;;;;;;5012900;28;20029;-69
2022/07/20 01:43:24;;;;;;;7.93;3.67;;;23.70;68.60;;;;;;5007178;28;20534;-69
2022/07/20 01:45:49;;;;;;;6.00;3.50;;;23.60;68.50;;;;;;4997001;28;20627;-69
2022/07/20 01:48:15;;;;;;;4.32;2.97;;;23.60;68.50;;;;;;4998635;28;20168;-68
2022/07/20 01:50:40;;;;;;;5.20;3.30;;;23.60;68.80;;;;;;5007494;28;20028;-69
2022/07/20 01:53:07;;;;;;;3.75;2.92;;;23.40;69.40;;;;;;5006764;28;20037;-69
2022/07/20 01:55:33;;;;;;;4.72;3.58;;;23.40;69.70;;;;;;4992680;28;20034;-69
2022/07/20 01:57:59;;;;;;;4.70;3.55;;;23.40;70.00;;;;;;4989462;28;20089;-69
2022/07/20 02:00:25;;;;;;;7.53;4.13;;;23.30;70.20;;;;;;5002968;28;20042;-69
2022/07/20 02:02:50;;;;;;;4.22;3.05;;;23.20;70.40;;;;;;5011985;28;20459;-69
2022/07/20 02:05:17;;;;;;;4.40;3.08;;;23.20;70.60;;;;;;5012541;28;20079;-69
2022/07/20 02:07:43;;;;;;;6.60;3.83;;;23.20;70.50;;;;;;4998123;28;20018;-69
2022/07/20 02:10:11;;;;;;;5.90;3.53;;;23.20;70.90;;;;;;4999704;28;20498;-68
2022/07/20 02:12:37;;;;;;;6.13;3.58;;;23.10;71.20;;;;;;5006550;28;20439;-69
2022/07/20 02:15:05;;;;;;;3.67;2.95;;;23.00;70.70;;;;;;5006979;28;20142;-68
2022/07/20 02:17:31;;;;;;;4.22;3.30;;;23.10;70.60;;;;;;4992613;28;20030;-69
2022/07/20 02:19:56;;;;;;;4.63;3.03;;;23.20;70.50;;;;;;5010156;28;20032;-68
2022/07/20 02:22:22;;;;;;;5.88;4.15;;;23.00;70.40;;;;;;5011829;28;20053;-68
2022/07/20 02:24:47;;;;;;;5.22;2.90;;;23.10;70.80;;;;;;5012285;28;20398;-69
2022/07/20 02:27:13;;;;;;;4.40;3.45;;;;;;;;;;5004963;28;20053;-69
2022/07/20 02:29:39;;;;;;;5.28;3.88;;;22.90;68.90;;;;;;5005402;28;20069;-69
2022/07/20 02:32:05;;;;;;;3.47;3.17;;;23.90;72.10;;;;;;5012201;28;20026;-69
2022/07/20 02:34:30;;;;;;;3.67;3.17;;;22.90;71.50;;;;;;5011468;28;20088;-69
2022/07/20 02:36:56;;;;;;;3.90;3.45;;;22.80;72.20;;;;;;5001837;28;20026;-69
2022/07/20 02:39:21;;;;;;;4.55;3.17;;;22.70;73.40;;;;;;4991888;28;20053;-69
2022/07/20 02:41:47;;;;;;;4.40;3.25;;;22.80;73.80;;;;;;5000761;28;20034;-69
2022/07/20 02:44:12;;;;;;;8.60;3.95;;;22.60;74.50;;;;;;5011202;28;20156;-69
2022/07/20 02:46:39;;;;;;;4.82;3.95;;;22.50;75.50;;;;;;4994195;28;20030;-69
2022/07/20 02:49:06;;;;;;;5.25;3.55;;;22.80;76.50;;;;;;5011966;28;20018;-69
2022/07/20 02:51:32;;;;;;;6.30;2.85;;;22.30;77.10;;;;;;5011194;28;20537;-69
2022/07/20 02:53:57;;;;;;;5.10;3.75;;;22.30;77.60;;;;;;5011749;28;20038;-69
2022/07/20 02:56:23;;;;;;;4.13;3.38;;;22.10;77.60;;;;;;4993727;28;20042;-69
2022/07/20 02:58:48;;;;;;;4.75;4.35;;;22.20;77.90;;;;;;4992399;28;20037;-69
2022/07/20 03:01:14;;;;;;;4.75;3.67;;;22.10;78.10;;;;;;5006240;28;20034;-69
2022/07/20 03:03:39;;;;;;;6.05;4.28;;;22.10;78.70;;;;;;5011450;28;20022;-69
2022/07/20 03:06:05;;;;;;;5.00;3.88;;;22.00;79.00;;;;;;5005691;28;20022;-69
2022/07/20 03:08:30;;;;;;;4.00;3.65;;;21.90;79.30;;;;;;4995882;28;20026;-69
2022/07/20 03:10:56;;;;;;;5.47;3.95;;;21.90;79.50;;;;;;5001085;28;20026;-69
2022/07/20 03:13:21;;;;;;;5.22;3.90;;;21.80;79.70;;;;;;5003795;28;20037;-69
2022/07/20 03:15:47;;;;;;;4.30;3.72;;;21.70;79.70;;;;;;5000274;28;20034;-69
2022/07/20 03:18:12;;;;;;;5.30;3.75;;;21.90;79.70;;;;;;5010476;28;20384;-69
2022/07/20 03:20:38;;;;;;;6.90;4.10;;;21.70;79.60;;;;;;4985166;28;20038;-69
2022/07/20 03:23:03;;;;;;;4.75;4.30;;;21.70;79.80;;;;;;4996572;28;20194;-68
2022/07/20 03:25:29;;;;;;;8.52;4.32;;;21.70;80.20;;;;;;4993114;28;20057;-68
2022/07/20 03:27:56;;;;;;;6.47;4.18;;;21.70;81.00;;;;;;4996397;28;20073;-68
2022/07/20 03:30:22;;;;;;;5.22;4.75;;;21.60;82.00;;;;;;4999628;28;20037;-68
2022/07/20 03:32:48;;;;;;;6.10;3.95;;;22.40;82.80;;;;;;4992601;28;20022;-69
2022/07/20 03:35:14;;;;;;;6.63;4.47;;;22.90;83.60;;;;;;5001908;28;20375;-69
2022/07/20 03:37:39;;;;;;;4.45;3.75;;;21.60;83.10;;;;;;5009284;28;20041;-68
2022/07/20 03:40:06;;;;;;;5.25;4.35;;;21.60;83.60;;;;;;5010833;28;20474;-69
2022/07/20 03:42:32;;;;;;;4.78;4.22;;;21.50;83.60;;;;;;4991539;28;20475;-69
2022/07/20 03:44:58;;;;;;;6.93;4.70;;;21.40;84.80;;;;;;4998216;28;20053;-68
2022/07/20 03:47:24;;;;;;;4.63;4.10;;;21.30;84.80;;;;;;5010544;28;20549;-69
2022/07/20 03:49:50;;;;;;;5.38;4.82;;;21.30;85.00;;;;;;4992107;28;20032;-68
2022/07/20 03:52:16;;;;;;;5.10;4.65;;;21.30;85.40;;;;;;5001696;28;20048;-69
2022/07/20 03:54:42;;;;;;;9.05;4.97;;;21.20;85.40;;;;;;5010644;28;20049;-69
2022/07/20 03:57:08;;;;;;;5.70;4.35;;;21.20;85.20;;;;;;5010224;28;20509;-69
2022/07/20 03:59:33;;;;;;;6.50;4.88;;;22.00;85.20;;;;;;5010077;28;20026;-69
2022/07/20 04:01:59;;;;;;;5.70;4.15;;;21.20;84.30;;;;;;5010502;28;20028;-69
2022/07/20 04:04:25;;;;;;;5.13;4.63;;;21.10;84.00;;;;;;5010146;28;20029;-69
2022/07/20 04:06:50;;;;;;;6.10;4.88;;;21.30;83.60;;;;;;5003407;28;20040;-68
2022/07/20 04:09:43;;;;;;;7.55;5.38;;;21.30;83.00;;;;;;4999272;28;20085;-68
2022/07/20 04:12:03;;;;;;;8.20;5.65;;;21.30;82.50;;;;;;5004189;28;20034;-68
2022/07/20 04:14:28;;;;;;;7.20;5.60;;;22.30;83.00;;;;;;4990436;28;20463;-68
2022/07/20 04:16:54;;;;;;;10.57;6.57;;;21.40;81.80;;;;;;4992071;28;20041;-69
2022/07/20 04:19:19;;;;;;;10.48;6.97;;;21.40;81.80;;;;;;4991709;28;20042;-69
2022/07/20 04:21:45;;;;;;;9.52;7.05;;;21.40;81.90;;;;;;4990578;28;20041;-69
2022/07/20 04:24:10;;;;;;;11.85;7.50;;;21.50;81.80;;;;;;4993324;28;20074;-69
2022/07/20 04:26:36;;;;;;;11.00;9.27;;;21.50;82.00;;;;;;5007897;28;20167;-69
2022/07/20 04:29:02;;;;;;;10.02;8.95;;;21.50;82.30;;;;;;5010355;28;20041;-69
2022/07/20 04:31:27;;;;;;;9.98;8.98;;;21.60;82.60;;;;;;5002077;28;20056;-69
2022/07/20 04:33:53;;;;;;;12.35;9.90;;;21.50;82.70;;;;;;4990635;28;20034;-69
2022/07/20 04:36:18;;;;;;;12.48;11.18;;;21.60;83.10;;;;;;5005890;28;20034;-69
2022/07/20 04:38:44;;;;;;;16.73;12.13;;;22.50;83.90;;;;;;5009868;28;20096;-69
2022/07/20 04:41:09;;;;;;;17.02;14.18;;;21.60;83.70;;;;;;4988629;28;20026;-69
2022/07/20 04:43:35;;;;;;;16.83;14.95;;;21.80;84.30;;;;;;4999887;28;20045;-69
2022/07/20 04:46:00;;;;;;;17.83;15.93;;;21.80;84.80;;;;;;5009995;28;20042;-69
2022/07/20 04:48:26;;;;;;;17.50;15.02;;;21.70;85.30;;;;;;5002299;28;20080;-69
2022/07/20 04:50:51;;;;;;;17.65;15.60;;;21.80;86.40;;;;;;4990542;28;20030;-69
2022/07/20 04:53:17;;;;;;;21.92;17.20;;;21.70;86.10;;;;;;4994804;28;20014;-69
2022/07/20 04:55:42;;;;;;;23.20;18.15;;;21.80;86.60;;;;;;5010124;28;20048;-69
2022/07/20 04:58:08;;;;;;;20.33;16.73;;;22.00;87.00;;;;;;5009985;28;20018;-69
2022/07/20 05:00:33;;;;;;;22.40;17.73;;;22.00;87.10;;;;;;5009630;28;20052;-69
2022/07/20 05:02:59;;;;;;;20.95;18.75;;;21.90;87.30;;;;;;4996010;28;20019;-69
2022/07/20 05:05:24;;;;;;;25.73;19.33;;;22.00;87.70;;;;;;4990526;28;20026;-69
2022/07/20 05:07:50;;;;;;;24.70;21.92;;;22.00;87.90;;;;;;4990147;28;20215;-69
2022/07/20 05:10:15;;;;;;;23.42;21.08;;;23.40;88.80;;;;;;4994857;28;20533;-69
2022/07/20 05:12:41;;;;;;;24.45;21.67;;;22.30;88.50;;;;;;4983096;28;20027;-69
2022/07/20 05:15:07;;;;;;;29.15;21.67;;;23.80;89.20;;;;;;4990513;28;20379;-69
2022/07/20 05:17:33;;;;;;;24.08;21.63;;;22.50;88.60;;;;;;4991880;28;20474;-69
2022/07/20 05:19:58;;;;;;;26.30;22.20;;;22.50;88.70;;;;;;4991290;28;20031;-69
2022/07/20 05:22:24;;;;;;;30.65;22.70;;;22.50;88.70;;;;;;4997966;28;20046;-69
2022/07/20 05:24:49;;;;;;;32.92;25.33;;;22.50;89.10;;;;;;4994741;28;20022;-69
2022/07/20 05:27:15;;;;;;;25.80;22.65;;;22.60;89.20;;;;;;4997055;28;20034;-68
2022/07/20 05:29:40;;;;;;;28.10;25.23;;;22.70;89.20;;;;;;4989844;28;20022;-69
2022/07/20 05:32:07;;;;;;;29.10;24.23;;;22.70;89.90;;;;;;4993699;28;20041;-69
2022/07/20 05:34:33;;;;;;;29.10;25.55;;;23.00;89.60;;;;;;4988067;28;20398;-69
2022/07/20 05:36:58;;;;;;;30.88;27.60;;;22.80;89.80;;;;;;4990727;28;20097;-69
2022/07/20 05:39:24;;;;;;;30.15;26.90;;;22.90;90.00;;;;;;4992929;28;20038;-69
2022/07/20 05:41:49;;;;;;;32.72;29.23;;;22.90;90.20;;;;;;4994986;28;20812;-70
2022/07/20 05:44:15;;;;;;;31.25;27.95;;;22.90;90.30;;;;;;4992829;28;20467;-69
2022/07/20 05:46:40;;;;;;;32.30;28.80;;;23.00;90.40;;;;;;4994827;28;20114;-70
2022/07/20 05:49:06;;;;;;;34.17;29.58;;;22.90;90.40;;;;;;4993232;28;20125;-69
2022/07/20 05:51:34;;;;;;;33.65;29.95;;;23.10;90.40;;;;;;4994021;28;20026;-70
2022/07/20 05:53:59;;;;;;;33.45;29.95;;;24.00;90.60;;;;;;4993461;28;20018;-70
2022/07/20 05:56:25;;;;;;;33.03;29.45;;;23.30;90.60;;;;;;4992642;28;20355;-70
2022/07/20 05:58:50;;;;;;;37.08;32.28;;;23.40;90.70;;;;;;4994594;28;20547;-70
2022/07/20 06:01:16;;;;;;;35.88;30.48;;;25.50;91.30;;;;;;4994062;28;20058;-70
2022/07/20 06:03:42;;;;;;;38.97;32.38;;;23.20;90.70;;;;;;4992834;28;20483;-70
2022/07/20 06:06:07;;;;;;;37.97;34.10;;;23.50;90.80;;;;;;4992660;28;20034;-70
2022/07/20 06:08:33;;;;;;;36.60;32.88;;;23.70;90.90;;;;;;4993606;28;20026;-70
2022/07/20 06:10:58;;;;;;;35.22;31.55;;;23.40;91.00;;;;;;4993102;28;20033;-70
2022/07/20 06:13:24;;;;;;;37.33;32.67;;;23.70;91.10;;;;;;4994767;28;20030;-72
2022/07/20 06:15:49;;;;;;;39.92;35.78;;;23.80;91.30;;;;;;4992950;28;20050;-70
2022/07/20 06:18:15;;;;;;;40.10;35.78;;;23.80;91.00;;;;;;4994418;28;20034;-69
2022/07/20 06:20:40;;;;;;;38.67;34.63;;;23.80;91.10;;;;;;4993427;28;20034;-70
2022/07/20 06:23:06;;;;;;;35.65;32.25;;;23.90;91.10;;;;;;4993969;28;20054;-70
2022/07/20 06:25:31;;;;;;;37.47;33.40;;;24.10;91.20;;;;;;4992104;28;20030;-70
2022/07/20 06:27:58;;;;;;;39.13;33.08;;;24.10;91.10;;;;;;4992782;28;20033;-70
2022/07/20 06:30:24;;;;;;;38.03;33.00;;;24.10;91.00;;;;;;4992048;28;20085;-69
2022/07/20 06:32:49;;;;;;;36.35;32.88;;;25.70;91.60;;;;;;4990405;28;20026;-69
2022/07/20 06:35:16;;;;;;;36.22;32.50;;;24.80;91.20;;;;;;5000367;28;20553;-69
2022/07/20 06:37:41;;;;;;;37.95;33.63;;;24.40;91.10;;;;;;4990947;28;20105;-68
2022/07/20 06:40:08;;;;;;;40.55;33.90;;;24.50;91.00;;;;;;4995253;28;20022;-69
2022/07/20 06:42:34;;;;;;;36.10;32.25;;;24.60;90.80;;;;;;4991414;28;20109;-68
2022/07/20 06:44:59;;;;;;;32.58;29.13;;;24.60;90.90;;;;;;4991921;28;20072;-69
2022/07/20 06:47:25;;;;;;;33.83;30.48;;;24.70;90.60;;;;;;4996999;28;20026;-69
2022/07/20 06:49:51;;;;;;;31.90;28.50;;;24.20;90.30;;;;;;4991628;28;20026;-69
2022/07/20 06:52:17;;;;;;;31.00;27.80;;;24.90;90.30;;;;;;4991899;28;20034;-69
2022/07/20 06:54:42;;;;;;;30.85;25.98;;;25.20;90.30;;;;;;4991944;28;20030;-68
2022/07/20 06:57:08;;;;;;;30.17;26.98;;;25.10;89.80;;;;;;4992118;28;20026;-69
2022/07/20 06:59:34;;;;;;;29.48;25.83;;;25.10;89.10;;;;;;4992555;28;20513;-69
2022/07/20 07:01:59;;;;;;;30.02;25.63;;;25.30;89.00;;;;;;4997999;28;20093;-69
2022/07/20 07:04:25;;;;;;;27.55;23.85;;;25.20;88.60;;;;;;4998143;28;20463;-69
2022/07/20 07:06:50;;;;;;;27.20;24.30;;;25.30;88.40;;;;;;4991039;28;20028;-69
2022/07/20 07:09:16;;;;;;;27.38;24.40;;;25.40;87.80;;;;;;4991432;28;20538;-68
2022/07/20 07:11:41;;;;;;;25.10;22.52;;;25.50;87.50;;;;;;4991895;28;20049;-69
2022/07/20 07:14:07;;;;;;;24.88;21.02;;;25.50;87.10;;;;;;4991821;28;20072;-68
2022/07/20 07:16:32;;;;;;;26.38;22.38;;;25.60;87.00;;;;;;5003477;28;20124;-68
2022/07/20 07:18:58;;;;;;;24.92;20.48;;;25.70;86.60;;;;;;4991340;28;20069;-69
2022/07/20 07:21:24;;;;;;;26.38;19.85;;;25.80;86.00;;;;;;4991297;28;20033;-69
2022/07/20 07:23:49;;;;;;;21.98;19.88;;;25.80;85.60;;;;;;5004073;28;20089;-70
2022/07/20 07:26:19;;;;;;;29.17;20.98;;;26.00;85.10;;;;;;4991191;28;20026;-69
2022/07/20 07:28:45;;;;;;;20.95;17.70;;;27.10;86.10;;;;;;4991132;28;20027;-69
2022/07/20 07:31:11;;;;;;;25.30;19.98;;;26.20;84.60;;;;;;4990762;28;20105;-69
2022/07/20 07:33:37;;;;;;;21.50;19.15;;;26.10;84.40;;;;;;4981780;28;20046;-69
2022/07/20 07:36:03;;;;;;;21.10;18.60;;;27.10;84.80;;;;;;4991207;28;20041;-69
2022/07/20 07:38:29;;;;;;;27.48;19.35;;;26.20;84.00;;;;;;4993989;28;20034;-69
2022/07/20 07:40:54;;;;;;;21.85;18.27;;;27.40;84.80;;;;;;4995872;28;20034;-69
2022/07/20 07:43:20;;;;;;;19.92;17.70;;;27.50;84.80;;;;;;4992156;28;20418;-69
2022/07/20 07:45:46;;;;;;;19.27;17.08;;;26.10;83.80;;;;;;4994332;28;20471;-69
2022/07/20 07:48:11;;;;;;;20.38;16.77;;;26.40;84.10;;;;;;4996459;28;20033;-69
2022/07/20 07:50:38;;;;;;;18.30;16.42;;;26.40;84.10;;;;;;4991030;28;20364;-69
2022/07/20 07:53:05;;;;;;;19.42;16.05;;;26.30;83.90;;;;;;4989367;28;20027;-69
2022/07/20 07:55:31;;;;;;;18.60;16.08;;;29.20;85.40;;;;;;4990722;28;20447;-69
2022/07/20 07:57:56;;;;;;;24.33;15.48;;;26.30;82.70;;;;;;4990918;28;20022;-69
2022/07/20 08:00:22;;;;;;;17.73;14.07;;;26.50;82.60;;;;;;4989841;28;20030;-69
2022/07/20 08:02:48;;;;;;;19.73;14.10;;;27.90;83.10;;;;;;4990635;28;20133;-69
2022/07/20 08:05:14;;;;;;;18.95;14.15;;;26.50;81.70;;;;;;4991077;28;20466;-69
2022/07/20 08:07:40;;;;;;;15.02;13.45;;;26.60;81.50;;;;;;4990174;28;20030;-69
2022/07/20 08:10:07;;;;;;;19.60;13.35;;;26.50;81.20;;;;;;4993987;28;20061;-69
2022/07/20 08:12:34;;;;;;;16.75;13.85;;;26.70;81.00;;;;;;4993466;28;20073;-69
2022/07/20 08:15:00;;;;;;;15.43;13.00;;;26.60;80.90;;;;;;4996147;28;20034;-69
2022/07/20 08:17:25;;;;;;;16.95;12.63;;;26.60;80.40;;;;;;4990660;28;20018;-69
2022/07/20 08:19:51;;;;;;;15.45;13.38;;;26.70;80.20;;;;;;4990726;28;20069;-69
2022/07/20 08:22:18;;;;;;;13.77;12.35;;;26.70;80.20;;;;;;4989785;28;20030;-69
2022/07/20 08:24:44;;;;;;;15.77;13.48;;;26.70;80.10;;;;;;4990578;28;20356;-70
2022/07/20 08:27:09;;;;;;;13.70;12.30;;;27.00;80.10;;;;;;4990110;28;20027;-69
2022/07/20 08:29:35;;;;;;;18.15;11.93;;;26.90;80.00;;;;;;4989528;28;20038;-69
2022/07/20 08:32:00;;;;;;;15.13;12.57;;;26.70;79.60;;;;;;4990997;28;20380;-69
2022/07/20 08:34:26;;;;;;;18.73;13.02;;;26.80;79.40;;;;;;4990031;28;20061;-69
2022/07/20 08:36:52;;;;;;;16.15;13.75;;;27.00;80.00;;;;;;4990165;28;20204;-69
2022/07/20 08:39:17;;;;;;;16.30;14.02;;;26.90;78.40;;;;;;4989852;28;20030;-68
2022/07/20 08:41:44;;;;;;;16.80;14.35;;;28.10;79.20;;;;;;4990545;28;20031;-69
2022/07/20 08:44:09;;;;;;;15.55;13.48;;;27.10;79.10;;;;;;4990311;28;20106;-69
2022/07/20 08:46:36;;;;;;;16.30;12.57;;;27.40;79.50;;;;;;4996109;28;20089;-69
2022/07/20 08:49:03;;;;;;;12.80;11.45;;;26.90;79.60;;;;;;4994009;28;20038;-69
2022/07/20 08:51:29;;;;;;;12.23;11.02;;;27.20;79.50;;;;;;4989838;28;20361;-69
2022/07/20 08:53:56;;;;;;;16.58;11.85;;;28.10;79.60;;;;;;4990484;28;20390;-69
2022/07/20 08:56:22;;;;;;;15.98;11.60;;;28.10;79.10;;;;;;4992187;28;20041;-69
2022/07/20 08:58:48;;;;;;;14.30;11.23;;;27.20;78.40;;;;;;4998394;28;20038;-70
2022/07/20 09:01:15;;;;;;;17.83;12.18;;;27.20;78.00;;;;;;4988743;28;20430;-69
2022/07/20 09:03:44;;;;;;;12.95;11.40;;;27.20;78.10;;;;;;4977479;28;20019;-69
2022/07/20 09:06:10;;;;;;;14.15;11.95;;;27.20;78.00;;;;;;4990025;28;20432;-69
2022/07/20 09:08:57;;;;;;;16.02;11.27;;;28.20;78.70;;;;;;4989875;28;20034;-68
2022/07/20 09:11:24;;;;;;;17.02;11.27;;;27.30;78.10;;;;;;4990981;28;20471;-68
2022/07/20 09:13:50;;;;;;;13.02;11.07;;;28.50;78.80;;;;;;4995013;28;20026;-68
2022/07/20 09:16:36;;;;;;;14.05;10.30;;;27.30;77.30;;;;;;4994394;28;20045;-68
2022/07/20 09:19:03;;;;;;;12.93;10.02;;;27.50;76.10;;;;;;4993307;28;20027;-68
2022/07/20 09:21:30;;;;;;;11.63;9.65;;;27.40;77.30;;;;;;4993017;28;20062;-68
2022/07/20 09:23:56;;;;;;;11.38;9.52;;;27.60;77.00;;;;;;4993613;28;20061;-69
2022/07/20 09:26:24;;;;;;;12.23;8.90;;;27.80;76.40;;;;;;4993423;28;20121;-68
2022/07/20 09:28:55;;;;;;;11.32;9.90;;;27.80;75.80;;;;;;4997602;28;20026;-69
2022/07/20 09:31:35;;;;;;;11.05;9.30;;;27.60;75.60;;;;;;5002181;28;20355;-68
2022/07/20 09:34:06;;;;;;;13.50;10.43;;;27.80;75.60;;;;;;4995454;28;20102;-69
2022/07/20 09:36:34;;;;;;;15.23;10.95;;;27.80;72.60;;;;;;4993168;28;20045;-68
2022/07/20 09:39:08;;;;;;;13.82;9.82;;;27.70;73.50;;;;;;5007201;28;20022;-69
2022/07/20 09:41:34;;;;;;;11.38;10.10;;;27.70;73.50;;;;;;4994634;28;20449;-69
2022/07/20 09:44:01;;;;;;;10.25;9.10;;;27.60;72.90;;;;;;4999360;28;20391;-68
2022/07/20 09:46:30;;;;;;;12.07;9.50;;;27.70;73.10;;;;;;4997821;28;20034;-69
2022/07/20 09:48:58;;;;;;;11.85;9.63;;;27.70;73.10;;;;;;5000040;28;20054;-68
2022/07/20 09:51:32;;;;;;;13.50;10.40;;;28.60;73.90;;;;;;5002757;28;20018;-68
2022/07/20 09:53:58;;;;;;;11.02;10.00;;;27.70;73.60;;;;;;4997937;28;20105;-69
2022/07/20 09:56:25;;;;;;;10.77;9.63;;;28.80;74.00;;;;;;4995799;28;20438;-69
2022/07/20 09:58:54;;;;;;;10.35;9.35;;;27.80;73.00;;;;;;4992321;28;20019;-68
2022/07/20 10:01:22;;;;;;;11.05;9.75;;;27.60;72.80;;;;;;4975219;28;20030;-68
2022/07/20 10:03:49;;;;;;;11.88;9.30;;;27.80;73.20;;;;;;4993099;28;20410;-69
2022/07/20 10:06:16;;;;;;;9.70;8.70;;;27.80;73.40;;;;;;4993032;28;20378;-68
2022/07/20 10:08:42;;;;;;;13.65;9.18;;;27.90;73.50;;;;;;4993039;28;20037;-68
2022/07/20 10:11:08;;;;;;;11.77;8.82;;;28.00;73.40;;;;;;4997757;28;20402;-68
2022/07/20 10:13:34;;;;;;;12.00;9.60;;;28.30;73.90;;;;;;4979599;28;20121;-68
2022/07/20 10:16:09;;;;;;;10.57;9.15;;;28.00;73.90;;;;;;5001326;28;20117;-68
2022/07/20 10:18:35;;;;;;;11.25;9.82;;;28.40;74.20;;;;;;4994040;28;20025;-68
2022/07/20 10:21:21;;;;;;;16.33;10.20;;;28.40;73.50;;;;;;4999834;28;20030;-68
2022/07/20 10:24:17;;;;;;;12.75;10.48;;;28.20;73.10;;;;;;4993678;28;20049;-68
2022/07/20 10:26:43;;;;;;;10.45;9.43;;;28.40;72.40;;;;;;4995848;28;20034;-68
2022/07/20 10:29:10;;;;;;;13.30;9.07;;;28.50;73.40;;;;;;4992097;28;20113;-69
2022/07/20 10:31:53;;;;;;;9.93;8.75;;;28.40;73.60;;;;;;4996055;28;20033;-70
2022/07/20 10:34:32;;;;;;;10.75;9.70;;;28.80;72.30;;;;;;4994498;28;20033;-68
2022/07/20 10:37:20;;;;;;;11.18;10.07;;;28.60;73.80;;;;;;4992717;28;20035;-68
2022/07/20 10:39:46;;;;;;;14.07;9.98;;;28.90;71.60;;;;;;4989992;28;20463;-69
2022/07/20 10:42:32;;;;;;;10.57;9.07;;;28.90;72.40;;;;;;4991840;28;20076;-68
2022/07/20 10:45:16;;;;;;;12.07;9.20;;;29.80;73.80;;;;;;4990470;28;20364;-68
2022/07/20 10:47:46;;;;;;;11.10;9.85;;;29.00;73.10;;;;;;4992288;28;20034;-69
2022/07/20 10:50:33;;;;;;;11.10;8.18;;;29.00;70.20;;;;;;4992012;28;20023;-68
2022/07/20 10:53:21;;;;;;;9.52;8.55;;;28.90;70.00;;;;;;4995529;28;20022;-68
2022/07/20 10:55:50;;;;;;;10.10;9.10;;;29.10;70.00;;;;;;4983564;28;20030;-69
2022/07/20 10:58:19;;;;;;;9.27;8.48;;;29.20;70.70;;;;;;4991274;28;20098;-69
2022/07/20 11:00:54;;;;;;;10.32;9.43;;;29.10;71.00;;;;;;4993534;28;20034;-69
2022/07/20 11:03:29;;;;;;;12.50;9.27;;;29.10;68.90;;;;;;4992468;28;20436;-69
2022/07/20 11:06:19;;;;;;;8.25;7.35;;;29.20;70.70;;;;;;4992120;28;20089;-69
2022/07/20 11:08:56;;;;;;;7.68;6.97;;;29.30;70.60;;;;;;4981473;28;20048;-68
2022/07/20 11:11:28;;;;;;;8.05;6.50;;;29.70;70.40;;;;;;4990708;28;20034;-68
2022/07/20 11:13:54;;;;;;;7.28;6.53;;;29.40;69.20;;;;;;4998976;28;20029;-68
2022/07/20 11:16:21;;;;;;;9.07;5.82;;;29.60;68.30;;;;;;4990041;28;20708;-68
2022/07/20 11:18:48;;;;;;;7.57;5.72;;;30.70;68.40;;;;;;4989272;28;20077;-68
2022/07/20 11:21:14;;;;;;;7.75;6.50;;;27.70;66.50;;;;;;4990821;28;20033;-69
2022/07/20 11:23:49;;;;;;;8.95;6.78;;;29.10;67.60;;;;;;4995874;28;20121;-69
2022/07/20 11:26:17;;;;;;;8.40;6.25;;;29.00;68.10;;;;;;4989773;28;20022;-68
2022/07/20 11:28:46;;;;;;;7.90;6.15;;;29.10;68.10;;;;;;4991203;28;20085;-68
2022/07/20 11:31:12;;;;;;;6.70;6.10;;;29.20;68.10;;;;;;4996469;28;20025;-68
2022/07/20 11:33:41;;;;;;;6.03;5.45;;;29.40;67.30;;;;;;5009781;28;20502;-67
2022/07/20 11:36:10;;;;;;;8.13;6.68;;;29.40;67.50;;;;;;5010008;28;20124;-68
2022/07/20 11:38:48;;;;;;;7.13;6.10;;;29.40;67.40;;;;;;5000467;28;20026;-68
2022/07/20 11:41:31;;;;;;;5.80;5.20;;;29.60;66.00;;;;;;4999985;28;20363;-67
2022/07/20 11:43:58;;;;;;;8.27;6.40;;;30.30;68.60;;;;;;5004054;28;20024;-68
2022/07/20 11:46:24;;;;;;;6.32;5.72;;;29.80;67.30;;;;;;5010344;28;20024;-67
2022/07/20 11:48:58;;;;;;;11.35;6.85;;;29.30;67.20;;;;;;5010869;28;20498;-67
2022/07/20 11:51:24;;;;;;;7.32;6.55;;;29.30;68.10;;;;;;5010136;28;20084;-67
2022/07/20 11:53:50;;;;;;;6.47;5.57;;;29.20;67.20;;;;;;5010446;28;20466;-67
2022/07/20 11:56:18;;;;;;;8.90;7.10;;;29.30;67.60;;;;;;4996925;28;20058;-68
2022/07/20 11:58:47;;;;;;;9.05;6.70;;;29.40;67.80;;;;;;5002684;28;20077;-68
2022/07/20 12:01:22;;;;;;;8.80;6.25;;;29.50;67.50;;;;;;5005016;28;20120;-68
2022/07/20 12:03:50;;;;;;;7.15;5.72;;;29.60;67.50;;;;;;4999705;28;20375;-68
2022/07/20 12:06:16;;;;;;;6.47;5.88;;;29.60;66.80;;;;;;4995974;28;20109;-69
2022/07/20 12:08:42;;;;;;;7.68;6.63;;;29.60;66.10;;;;;;4990119;28;20034;-69
2022/07/20 12:11:10;;;;;;;8.13;6.03;;;29.80;66.10;;;;;;4996229;28;20026;-68
2022/07/20 12:13:50;;;;;;;6.45;5.93;;;29.80;66.40;;;;;;4990894;28;20025;-69
2022/07/20 12:16:17;;;;;;;6.20;5.60;;;29.80;66.80;;;;;;4988788;28;20121;-69
2022/07/20 12:18:50;;;;;;;7.57;6.18;;;29.80;65.70;;;;;;4993828;28;20030;-69
2022/07/20 12:21:20;;;;;;;6.90;5.63;;;30.00;65.70;;;;;;4990485;28;20057;-69
2022/07/20 12:23:49;;;;;;;5.78;5.18;;;30.10;65.80;;;;;;4993368;28;20034;-69
2022/07/20 12:26:23;;;;;;;7.30;6.55;;;29.80;64.80;;;;;;4990473;28;20022;-69
2022/07/20 12:28:49;;;;;;;6.18;5.18;;;30.10;65.40;;;;;;4972506;28;20096;-68
2022/07/20 12:31:17;;;;;;;6.35;4.90;;;30.10;64.70;;;;;;4995704;28;20073;-70
2022/07/20 12:34:04;;;;;;;7.47;5.65;;;30.40;65.20;;;;;;4996895;28;20491;-69
2022/07/20 12:36:46;;;;;;;6.15;5.60;;;31.60;66.10;;;;;;4986369;28;20046;-69
2022/07/20 12:39:14;;;;;;;8.35;5.82;;;30.50;62.70;;;;;;4989514;28;20014;-68
2022/07/20 12:41:41;;;;;;;7.38;5.40;;;30.40;64.00;;;;;;4989599;28;20033;-69